sensor_id;sensor_type;location;lat;lon;timestamp;P1;durP1;ratioP1;P2;durP2;ratioP2
72113;SDS011;59989;46.220;19.888;2023-06-22T00:01:46;2.40;;;0.95;;
72113;SDS011;59989;46.220;19.888;2023-06-22T00:04:48;2.15;;;0.70;;
72113;SDS011;59989;46.220;19.888;2023-06-22T00:07:51;2.00;;;0.83;;
72113;SDS011;59989;46.220;19.888;2023-06-22T00:10:53;1.45;;;0.60;;
72113;SDS011;59989;46.220;19.888;2023-06-22T00:13:55;1.20;;;0.40;;
72113;SDS011;59989;46.220;19.888;2023-06-22T00:16:58;1.70;;;0.60;;
72113;SDS011;59989;46.220;19.888;2023-06-22T00:20:01;1.35;;;0.60;;
72113;SDS011;59989;46.220;19.888;2023-06-22T00:23:04;1.70;;;0.60;;
72113;SDS011;59989;46.220;19.888;2023-06-22T00:26:11;1.77;;;0.68;;
72113;SDS011;59989;46.220;19.888;2023-06-22T00:29:14;1.67;;;0.50;;
72113;SDS011;59989;46.220;19.888;2023-06-22T00:32:16;1.60;;;0.63;;
72113;SDS011;59989;46.220;19.888;2023-06-22T00:35:22;1.15;;;0.40;;
72113;SDS011;59989;46.220;19.888;2023-06-22T00:38:24;1.10;;;0.40;;
72113;SDS011;59989;46.220;19.888;2023-06-22T00:41:27;1.10;;;0.40;;
72113;SDS011;59989;46.220;19.888;2023-06-22T00:44:30;1.27;;;0.52;;
72113;SDS011;59989;46.220;19.888;2023-06-22T00:47:34;1.42;;;0.50;;
72113;SDS011;59989;46.220;19.888;2023-06-22T00:50:38;1.80;;;0.75;;
72113;SDS011;59989;46.220;19.888;2023-06-22T00:53:42;1.13;;;0.40;;
72113;SDS011;59989;46.220;19.888;2023-06-22T00:56:45;1.52;;;0.60;;
72113;SDS011;59989;46.220;19.888;2023-06-22T00:59:48;1.45;;;0.63;;
72113;SDS011;59989;46.220;19.888;2023-06-22T01:02:51;1.70;;;0.75;;
72113;SDS011;59989;46.220;19.888;2023-06-22T01:05:57;1.40;;;0.50;;
72113;SDS011;59989;46.220;19.888;2023-06-22T01:09:31;3.17;;;0.60;;
72113;SDS011;59989;46.220;19.888;2023-06-22T01:12:38;2.30;;;0.50;;
72113;SDS011;59989;46.220;19.888;2023-06-22T01:15:49;1.60;;;0.82;;
72113;SDS011;59989;46.220;19.888;2023-06-22T01:18:57;1.60;;;0.68;;
72113;SDS011;59989;46.220;19.888;2023-06-22T01:22:03;1.25;;;0.47;;
72113;SDS011;59989;46.220;19.888;2023-06-22T01:25:10;0.90;;;0.30;;
72113;SDS011;59989;46.220;19.888;2023-06-22T01:31:45;1.20;;;0.40;;
72113;SDS011;59989;46.220;19.888;2023-06-22T01:34:51;1.33;;;0.50;;
72113;SDS011;59989;46.220;19.888;2023-06-22T01:37:53;1.60;;;0.60;;
72113;SDS011;59989;46.220;19.888;2023-06-22T01:40:57;0.90;;;0.30;;
72113;SDS011;59989;46.220;19.888;2023-06-22T01:44:00;1.83;;;0.85;;
72113;SDS011;59989;46.220;19.888;2023-06-22T01:47:05;1.48;;;0.50;;
72113;SDS011;59989;46.220;19.888;2023-06-22T01:50:11;1.00;;;0.40;;
72113;SDS011;59989;46.220;19.888;2023-06-22T01:53:14;1.33;;;0.50;;
72113;SDS011;59989;46.220;19.888;2023-06-22T01:56:17;1.23;;;0.40;;
72113;SDS011;59989;46.220;19.888;2023-06-22T01:59:23;1.15;;;0.45;;
72113;SDS011;59989;46.220;19.888;2023-06-22T02:02:36;1.08;;;0.40;;
72113;SDS011;59989;46.220;19.888;2023-06-22T02:06:00;0.95;;;0.30;;
72113;SDS011;59989;46.220;19.888;2023-06-22T02:09:08;1.30;;;0.55;;
72113;SDS011;59989;46.220;19.888;2023-06-22T02:12:16;1.83;;;0.77;;
72113;SDS011;59989;46.220;19.888;2023-06-22T02:15:20;0.95;;;0.30;;
72113;SDS011;59989;46.220;19.888;2023-06-22T02:18:28;1.38;;;0.47;;
72113;SDS011;59989;46.220;19.888;2023-06-22T02:21:30;1.15;;;0.40;;
72113;SDS011;59989;46.220;19.888;2023-06-22T02:24:33;1.40;;;0.50;;
72113;SDS011;59989;46.220;19.888;2023-06-22T02:27:35;1.67;;;0.60;;
72113;SDS011;59989;46.220;19.888;2023-06-22T02:30:38;1.27;;;0.40;;
72113;SDS011;59989;46.220;19.888;2023-06-22T02:33:41;1.20;;;0.45;;
72113;SDS011;59989;46.220;19.888;2023-06-22T02:36:48;1.27;;;0.50;;
72113;SDS011;59989;46.220;19.888;2023-06-22T02:39:54;1.10;;;0.40;;
72113;SDS011;59989;46.220;19.888;2023-06-22T02:42:56;1.40;;;0.50;;
72113;SDS011;59989;46.220;19.888;2023-06-22T02:46:04;0.90;;;0.30;;
72113;SDS011;59989;46.220;19.888;2023-06-22T02:49:07;1.38;;;0.43;;
72113;SDS011;59989;46.220;19.888;2023-06-22T02:52:09;1.45;;;0.50;;
72113;SDS011;59989;46.220;19.888;2023-06-22T02:55:12;2.15;;;0.93;;
72113;SDS011;59989;46.220;19.888;2023-06-22T02:58:15;1.20;;;0.40;;
72113;SDS011;59989;46.220;19.888;2023-06-22T03:01:18;1.00;;;0.32;;
72113;SDS011;59989;46.220;19.888;2023-06-22T03:04:26;1.42;;;0.55;;
72113;SDS011;59989;46.220;19.888;2023-06-22T03:07:29;1.23;;;0.50;;
72113;SDS011;59989;46.220;19.888;2023-06-22T03:10:33;1.27;;;0.40;;
72113;SDS011;59989;46.220;19.888;2023-06-22T03:13:35;1.20;;;0.40;;
72113;SDS011;59989;46.220;19.888;2023-06-22T03:16:38;1.67;;;0.85;;
72113;SDS011;59989;46.220;19.888;2023-06-22T03:19:42;1.85;;;0.80;;
72113;SDS011;59989;46.220;19.888;2023-06-22T03:22:45;1.15;;;0.40;;
72113;SDS011;59989;46.220;19.888;2023-06-22T03:25:47;1.55;;;0.60;;
72113;SDS011;59989;46.220;19.888;2023-06-22T03:28:50;1.40;;;0.53;;
72113;SDS011;59989;46.220;19.888;2023-06-22T03:31:52;1.00;;;0.40;;
72113;SDS011;59989;46.220;19.888;2023-06-22T03:34:56;1.27;;;0.47;;
72113;SDS011;59989;46.220;19.888;2023-06-22T03:38:01;1.45;;;0.57;;
72113;SDS011;59989;46.220;19.888;2023-06-22T03:41:05;1.60;;;0.60;;
72113;SDS011;59989;46.220;19.888;2023-06-22T03:44:09;1.40;;;0.47;;
72113;SDS011;59989;46.220;19.888;2023-06-22T03:47:15;0.90;;;0.30;;
72113;SDS011;59989;46.220;19.888;2023-06-22T03:50:17;1.10;;;0.40;;
72113;SDS011;59989;46.220;19.888;2023-06-22T03:53:22;1.27;;;0.47;;
72113;SDS011;59989;46.220;19.888;2023-06-22T03:56:24;2.38;;;0.85;;
72113;SDS011;59989;46.220;19.888;2023-06-22T03:59:27;1.67;;;0.60;;
72113;SDS011;59989;46.220;19.888;2023-06-22T04:02:29;1.48;;;0.50;;
72113;SDS011;59989;46.220;19.888;2023-06-22T04:05:31;2.65;;;0.70;;
72113;SDS011;59989;46.220;19.888;2023-06-22T04:08:34;1.05;;;0.40;;
72113;SDS011;59989;46.220;19.888;2023-06-22T04:11:36;1.60;;;0.73;;
72113;SDS011;59989;46.220;19.888;2023-06-22T04:14:39;2.43;;;0.73;;
72113;SDS011;59989;46.220;19.888;2023-06-22T04:17:41;1.30;;;0.50;;
72113;SDS011;59989;46.220;19.888;2023-06-22T04:20:44;2.40;;;0.77;;
72113;SDS011;59989;46.220;19.888;2023-06-22T04:23:49;1.95;;;0.70;;
72113;SDS011;59989;46.220;19.888;2023-06-22T04:26:51;1.40;;;0.50;;
72113;SDS011;59989;46.220;19.888;2023-06-22T04:29:57;1.50;;;0.60;;
72113;SDS011;59989;46.220;19.888;2023-06-22T04:33:02;1.45;;;0.50;;
72113;SDS011;59989;46.220;19.888;2023-06-22T04:36:05;1.85;;;0.70;;
72113;SDS011;59989;46.220;19.888;2023-06-22T04:39:08;1.75;;;0.60;;
72113;SDS011;59989;46.220;19.888;2023-06-22T04:42:12;1.48;;;0.70;;
72113;SDS011;59989;46.220;19.888;2023-06-22T04:45:14;1.60;;;0.53;;
72113;SDS011;59989;46.220;19.888;2023-06-22T04:48:17;1.30;;;0.50;;
72113;SDS011;59989;46.220;19.888;2023-06-22T04:51:19;1.42;;;0.52;;
72113;SDS011;59989;46.220;19.888;2023-06-22T04:54:24;1.95;;;0.73;;
72113;SDS011;59989;46.220;19.888;2023-06-22T04:57:26;2.28;;;0.77;;
72113;SDS011;59989;46.220;19.888;2023-06-22T05:00:34;1.80;;;0.63;;
72113;SDS011;59989;46.220;19.888;2023-06-22T05:03:38;1.65;;;0.60;;
72113;SDS011;59989;46.220;19.888;2023-06-22T05:06:44;1.20;;;0.40;;
72113;SDS011;59989;46.220;19.888;2023-06-22T05:09:47;1.65;;;0.50;;
72113;SDS011;59989;46.220;19.888;2023-06-22T05:12:49;1.58;;;0.50;;
72113;SDS011;59989;46.220;19.888;2023-06-22T05:15:52;2.70;;;0.93;;
72113;SDS011;59989;46.220;19.888;2023-06-22T05:18:54;1.27;;;0.50;;
72113;SDS011;59989;46.220;19.888;2023-06-22T05:21:58;13.27;;;0.80;;
72113;SDS011;59989;46.220;19.888;2023-06-22T05:25:00;1.75;;;0.60;;
72113;SDS011;59989;46.220;19.888;2023-06-22T05:28:03;1.27;;;0.47;;
72113;SDS011;59989;46.220;19.888;2023-06-22T05:31:14;2.07;;;0.80;;
72113;SDS011;59989;46.220;19.888;2023-06-22T05:34:16;2.25;;;0.77;;
72113;SDS011;59989;46.220;19.888;2023-06-22T05:37:19;1.77;;;0.73;;
72113;SDS011;59989;46.220;19.888;2023-06-22T05:40:21;1.92;;;0.60;;
72113;SDS011;59989;46.220;19.888;2023-06-22T05:43:24;1.88;;;0.70;;
72113;SDS011;59989;46.220;19.888;2023-06-22T05:46:27;3.30;;;1.00;;
72113;SDS011;59989;46.220;19.888;2023-06-22T05:49:29;2.17;;;0.85;;
72113;SDS011;59989;46.220;19.888;2023-06-22T05:52:35;1.23;;;0.43;;
72113;SDS011;59989;46.220;19.888;2023-06-22T05:55:37;2.00;;;0.77;;
72113;SDS011;59989;46.220;19.888;2023-06-22T05:58:40;3.67;;;0.98;;
72113;SDS011;59989;46.220;19.888;2023-06-22T06:01:42;1.43;;;0.50;;
72113;SDS011;59989;46.220;19.888;2023-06-22T06:04:45;1.95;;;0.88;;
72113;SDS011;59989;46.220;19.888;2023-06-22T06:07:47;1.50;;;0.50;;
72113;SDS011;59989;46.220;19.888;2023-06-22T06:10:50;2.13;;;0.90;;
72113;SDS011;59989;46.220;19.888;2023-06-22T06:13:55;4.53;;;1.30;;
72113;SDS011;59989;46.220;19.888;2023-06-22T06:16:58;1.87;;;0.63;;
72113;SDS011;59989;46.220;19.888;2023-06-22T06:20:00;2.17;;;0.80;;
72113;SDS011;59989;46.220;19.888;2023-06-22T06:23:03;1.85;;;0.60;;
72113;SDS011;59989;46.220;19.888;2023-06-22T06:26:05;2.15;;;0.90;;
72113;SDS011;59989;46.220;19.888;2023-06-22T06:29:09;2.83;;;1.30;;
72113;SDS011;59989;46.220;19.888;2023-06-22T06:32:12;2.13;;;0.97;;
72113;SDS011;59989;46.220;19.888;2023-06-22T06:35:15;2.30;;;0.90;;
72113;SDS011;59989;46.220;19.888;2023-06-22T06:38:20;3.75;;;1.05;;
72113;SDS011;59989;46.220;19.888;2023-06-22T06:41:22;1.58;;;0.60;;
72113;SDS011;59989;46.220;19.888;2023-06-22T06:44:25;2.10;;;0.77;;
72113;SDS011;59989;46.220;19.888;2023-06-22T06:47:27;1.80;;;0.60;;
72113;SDS011;59989;46.220;19.888;2023-06-22T06:50:30;2.47;;;1.10;;
72113;SDS011;59989;46.220;19.888;2023-06-22T06:53:33;2.10;;;0.88;;
72113;SDS011;59989;46.220;19.888;2023-06-22T06:56:36;4.72;;;0.95;;
72113;SDS011;59989;46.220;19.888;2023-06-22T06:59:38;2.55;;;1.00;;
72113;SDS011;59989;46.220;19.888;2023-06-22T07:02:43;1.43;;;0.43;;
72113;SDS011;59989;46.220;19.888;2023-06-22T07:05:46;1.80;;;0.60;;
72113;SDS011;59989;46.220;19.888;2023-06-22T07:08:49;2.28;;;0.85;;
72113;SDS011;59989;46.220;19.888;2023-06-22T07:11:51;1.90;;;0.82;;
72113;SDS011;59989;46.220;19.888;2023-06-22T07:14:56;2.08;;;0.82;;
72113;SDS011;59989;46.220;19.888;2023-06-22T07:18:04;2.47;;;0.80;;
72113;SDS011;59989;46.220;19.888;2023-06-22T07:21:06;2.75;;;1.10;;
72113;SDS011;59989;46.220;19.888;2023-06-22T07:24:09;3.63;;;1.30;;
72113;SDS011;59989;46.220;19.888;2023-06-22T07:27:11;2.65;;;1.08;;
72113;SDS011;59989;46.220;19.888;2023-06-22T07:30:15;4.82;;;1.27;;
72113;SDS011;59989;46.220;19.888;2023-06-22T07:33:18;3.20;;;1.13;;
72113;SDS011;59989;46.220;19.888;2023-06-22T07:36:21;2.50;;;1.05;;
72113;SDS011;59989;46.220;19.888;2023-06-22T07:39:24;3.38;;;1.45;;
72113;SDS011;59989;46.220;19.888;2023-06-22T07:42:28;2.25;;;0.90;;
72113;SDS011;59989;46.220;19.888;2023-06-22T07:45:35;7.53;;;1.58;;
72113;SDS011;59989;46.220;19.888;2023-06-22T07:48:37;3.63;;;1.10;;
72113;SDS011;59989;46.220;19.888;2023-06-22T07:51:42;1.90;;;0.70;;
72113;SDS011;59989;46.220;19.888;2023-06-22T07:54:44;2.15;;;0.80;;
72113;SDS011;59989;46.220;19.888;2023-06-22T07:57:47;2.75;;;0.90;;
72113;SDS011;59989;46.220;19.888;2023-06-22T08:00:51;2.40;;;0.93;;
72113;SDS011;59989;46.220;19.888;2023-06-22T08:03:53;4.63;;;1.23;;
72113;SDS011;59989;46.220;19.888;2023-06-22T08:06:56;2.92;;;1.05;;
72113;SDS011;59989;46.220;19.888;2023-06-22T08:09:58;3.90;;;1.42;;
72113;SDS011;59989;46.220;19.888;2023-06-22T08:13:01;3.25;;;1.20;;
72113;SDS011;59989;46.220;19.888;2023-06-22T08:16:03;2.42;;;0.88;;
72113;SDS011;59989;46.220;19.888;2023-06-22T08:19:06;2.27;;;0.80;;
72113;SDS011;59989;46.220;19.888;2023-06-22T08:22:09;2.85;;;1.30;;
72113;SDS011;59989;46.220;19.888;2023-06-22T08:25:11;2.35;;;0.88;;
72113;SDS011;59989;46.220;19.888;2023-06-22T08:28:15;2.50;;;0.77;;
72113;SDS011;59989;46.220;19.888;2023-06-22T08:31:19;2.67;;;0.95;;
72113;SDS011;59989;46.220;19.888;2023-06-22T08:34:24;2.47;;;0.90;;
72113;SDS011;59989;46.220;19.888;2023-06-22T08:37:27;2.40;;;0.82;;
72113;SDS011;59989;46.220;19.888;2023-06-22T08:40:33;3.55;;;1.45;;
72113;SDS011;59989;46.220;19.888;2023-06-22T08:43:36;2.88;;;1.17;;
72113;SDS011;59989;46.220;19.888;2023-06-22T08:46:38;2.80;;;1.20;;
72113;SDS011;59989;46.220;19.888;2023-06-22T08:49:42;3.47;;;1.33;;
72113;SDS011;59989;46.220;19.888;2023-06-22T08:52:45;3.25;;;1.30;;
72113;SDS011;59989;46.220;19.888;2023-06-22T08:55:47;2.30;;;0.85;;
72113;SDS011;59989;46.220;19.888;2023-06-22T08:58:50;2.30;;;0.90;;
72113;SDS011;59989;46.220;19.888;2023-06-22T09:01:52;3.45;;;1.20;;
72113;SDS011;59989;46.220;19.888;2023-06-22T09:04:59;3.00;;;1.30;;
72113;SDS011;59989;46.220;19.888;2023-06-22T09:08:02;3.10;;;0.95;;
72113;SDS011;59989;46.220;19.888;2023-06-22T09:11:05;2.33;;;0.95;;
72113;SDS011;59989;46.220;19.888;2023-06-22T09:14:07;2.65;;;0.77;;
72113;SDS011;59989;46.220;19.888;2023-06-22T09:17:10;2.83;;;1.25;;
72113;SDS011;59989;46.220;19.888;2023-06-22T09:20:14;2.37;;;0.80;;
72113;SDS011;59989;46.220;19.888;2023-06-22T09:23:17;2.72;;;1.13;;
72113;SDS011;59989;46.220;19.888;2023-06-22T09:26:20;3.00;;;1.05;;
72113;SDS011;59989;46.220;19.888;2023-06-22T09:29:23;2.60;;;1.02;;
72113;SDS011;59989;46.220;19.888;2023-06-22T09:32:25;3.17;;;1.30;;
72113;SDS011;59989;46.220;19.888;2023-06-22T09:35:28;3.97;;;1.80;;
72113;SDS011;59989;46.220;19.888;2023-06-22T09:38:30;3.92;;;1.30;;
72113;SDS011;59989;46.220;19.888;2023-06-22T09:41:33;2.67;;;0.98;;
72113;SDS011;59989;46.220;19.888;2023-06-22T09:44:35;1.85;;;0.70;;
72113;SDS011;59989;46.220;19.888;2023-06-22T09:47:38;3.17;;;1.20;;
72113;SDS011;59989;46.220;19.888;2023-06-22T09:50:41;3.30;;;0.80;;
72113;SDS011;59989;46.220;19.888;2023-06-22T09:53:43;2.45;;;0.85;;
72113;SDS011;59989;46.220;19.888;2023-06-22T09:56:46;2.63;;;1.02;;
72113;SDS011;59989;46.220;19.888;2023-06-22T09:59:48;3.22;;;1.13;;
72113;SDS011;59989;46.220;19.888;2023-06-22T10:02:52;4.13;;;1.45;;
72113;SDS011;59989;46.220;19.888;2023-06-22T10:05:54;2.60;;;1.10;;
72113;SDS011;59989;46.220;19.888;2023-06-22T10:08:57;2.70;;;1.20;;
72113;SDS011;59989;46.220;19.888;2023-06-22T10:12:00;3.42;;;1.30;;
72113;SDS011;59989;46.220;19.888;2023-06-22T10:15:02;3.08;;;1.17;;
72113;SDS011;59989;46.220;19.888;2023-06-22T10:18:06;2.90;;;1.02;;
72113;SDS011;59989;46.220;19.888;2023-06-22T10:21:08;2.43;;;0.93;;
72113;SDS011;59989;46.220;19.888;2023-06-22T10:24:11;3.58;;;1.52;;
72113;SDS011;59989;46.220;19.888;2023-06-22T10:27:14;3.05;;;1.30;;
72113;SDS011;59989;46.220;19.888;2023-06-22T10:30:17;3.33;;;1.20;;
72113;SDS011;59989;46.220;19.888;2023-06-22T10:33:20;3.60;;;1.20;;
72113;SDS011;59989;46.220;19.888;2023-06-22T10:36:23;3.43;;;1.40;;
72113;SDS011;59989;46.220;19.888;2023-06-22T10:39:25;3.03;;;1.20;;
72113;SDS011;59989;46.220;19.888;2023-06-22T10:42:28;3.95;;;1.55;;
72113;SDS011;59989;46.220;19.888;2023-06-22T10:45:30;4.55;;;1.85;;
72113;SDS011;59989;46.220;19.888;2023-06-22T10:48:33;3.85;;;1.50;;
72113;SDS011;59989;46.220;19.888;2023-06-22T10:51:36;3.10;;;1.20;;
72113;SDS011;59989;46.220;19.888;2023-06-22T10:54:38;4.15;;;2.10;;
72113;SDS011;59989;46.220;19.888;2023-06-22T10:57:41;5.72;;;2.25;;
72113;SDS011;59989;46.220;19.888;2023-06-22T11:00:49;3.80;;;1.58;;
72113;SDS011;59989;46.220;19.888;2023-06-22T11:03:51;3.50;;;1.35;;
72113;SDS011;59989;46.220;19.888;2023-06-22T11:06:54;3.37;;;1.30;;
72113;SDS011;59989;46.220;19.888;2023-06-22T11:09:58;3.58;;;1.60;;
72113;SDS011;59989;46.220;19.888;2023-06-22T11:13:01;3.42;;;1.20;;
72113;SDS011;59989;46.220;19.888;2023-06-22T11:16:04;4.18;;;1.65;;
72113;SDS011;59989;46.220;19.888;2023-06-22T11:19:07;3.38;;;1.42;;
72113;SDS011;59989;46.220;19.888;2023-06-22T11:22:10;3.57;;;1.67;;
72113;SDS011;59989;46.220;19.888;2023-06-22T11:25:13;3.50;;;1.45;;
72113;SDS011;59989;46.220;19.888;2023-06-22T11:28:15;3.45;;;1.20;;
72113;SDS011;59989;46.220;19.888;2023-06-22T11:31:18;4.07;;;1.85;;
72113;SDS011;59989;46.220;19.888;2023-06-22T11:34:27;3.53;;;1.60;;
72113;SDS011;59989;46.220;19.888;2023-06-22T11:37:30;3.53;;;1.47;;
72113;SDS011;59989;46.220;19.888;2023-06-22T11:40:32;3.70;;;1.52;;
72113;SDS011;59989;46.220;19.888;2023-06-22T11:43:35;3.30;;;1.30;;
72113;SDS011;59989;46.220;19.888;2023-06-22T11:46:39;5.05;;;2.33;;
72113;SDS011;59989;46.220;19.888;2023-06-22T11:49:41;3.58;;;1.58;;
72113;SDS011;59989;46.220;19.888;2023-06-22T11:52:44;6.27;;;2.17;;
72113;SDS011;59989;46.220;19.888;2023-06-22T11:55:46;3.75;;;1.65;;
72113;SDS011;59989;46.220;19.888;2023-06-22T11:58:49;4.32;;;1.67;;
72113;SDS011;59989;46.220;19.888;2023-06-22T12:01:52;5.50;;;2.55;;
72113;SDS011;59989;46.220;19.888;2023-06-22T12:04:54;3.28;;;1.40;;
72113;SDS011;59989;46.220;19.888;2023-06-22T12:07:58;3.80;;;1.60;;
72113;SDS011;59989;46.220;19.888;2023-06-22T12:11:00;3.90;;;1.77;;
72113;SDS011;59989;46.220;19.888;2023-06-22T12:14:03;3.72;;;1.55;;
72113;SDS011;59989;46.220;19.888;2023-06-22T12:17:06;3.50;;;1.30;;
72113;SDS011;59989;46.220;19.888;2023-06-22T12:20:09;4.28;;;2.08;;
72113;SDS011;59989;46.220;19.888;2023-06-22T12:23:12;3.63;;;1.33;;
72113;SDS011;59989;46.220;19.888;2023-06-22T12:26:14;3.63;;;1.48;;
72113;SDS011;59989;46.220;19.888;2023-06-22T12:29:17;3.97;;;1.65;;
72113;SDS011;59989;46.220;19.888;2023-06-22T12:32:19;4.57;;;1.98;;
72113;SDS011;59989;46.220;19.888;2023-06-22T12:35:22;3.88;;;1.75;;
72113;SDS011;59989;46.220;19.888;2023-06-22T12:38:25;4.40;;;1.77;;
72113;SDS011;59989;46.220;19.888;2023-06-22T12:41:28;3.40;;;1.48;;
72113;SDS011;59989;46.220;19.888;2023-06-22T12:44:30;4.10;;;1.73;;
72113;SDS011;59989;46.220;19.888;2023-06-22T12:47:32;4.53;;;1.95;;
72113;SDS011;59989;46.220;19.888;2023-06-22T12:50:35;4.40;;;1.77;;
72113;SDS011;59989;46.220;19.888;2023-06-22T12:53:38;4.63;;;1.63;;
72113;SDS011;59989;46.220;19.888;2023-06-22T12:56:40;4.18;;;1.75;;
72113;SDS011;59989;46.220;19.888;2023-06-22T12:59:45;4.55;;;1.88;;
72113;SDS011;59989;46.220;19.888;2023-06-22T13:02:48;4.35;;;1.83;;
72113;SDS011;59989;46.220;19.888;2023-06-22T13:05:51;4.32;;;2.03;;
72113;SDS011;59989;46.220;19.888;2023-06-22T13:08:53;4.63;;;1.97;;
72113;SDS011;59989;46.220;19.888;2023-06-22T13:11:59;4.13;;;1.83;;
72113;SDS011;59989;46.220;19.888;2023-06-22T13:15:01;4.60;;;2.10;;
72113;SDS011;59989;46.220;19.888;2023-06-22T13:18:05;4.88;;;2.13;;
72113;SDS011;59989;46.220;19.888;2023-06-22T13:21:08;4.88;;;2.22;;
72113;SDS011;59989;46.220;19.888;2023-06-22T13:24:10;4.93;;;1.90;;
72113;SDS011;59989;46.220;19.888;2023-06-22T13:27:12;6.82;;;2.58;;
72113;SDS011;59989;46.220;19.888;2023-06-22T13:30:15;4.82;;;2.17;;
72113;SDS011;59989;46.220;19.888;2023-06-22T13:33:17;5.15;;;2.53;;
72113;SDS011;59989;46.220;19.888;2023-06-22T13:36:20;5.00;;;2.20;;
72113;SDS011;59989;46.220;19.888;2023-06-22T13:39:23;4.23;;;1.90;;
72113;SDS011;59989;46.220;19.888;2023-06-22T13:42:26;5.13;;;2.45;;
72113;SDS011;59989;46.220;19.888;2023-06-22T13:45:28;5.38;;;2.83;;
72113;SDS011;59989;46.220;19.888;2023-06-22T13:48:31;4.90;;;2.40;;
72113;SDS011;59989;46.220;19.888;2023-06-22T13:51:34;5.72;;;2.67;;
72113;SDS011;59989;46.220;19.888;2023-06-22T13:54:38;4.80;;;2.17;;
72113;SDS011;59989;46.220;19.888;2023-06-22T13:57:40;5.43;;;2.50;;
72113;SDS011;59989;46.220;19.888;2023-06-22T14:00:43;5.28;;;2.70;;
72113;SDS011;59989;46.220;19.888;2023-06-22T14:03:46;4.63;;;2.10;;
72113;SDS011;59989;46.220;19.888;2023-06-22T14:06:50;4.68;;;2.17;;
72113;SDS011;59989;46.220;19.888;2023-06-22T14:09:55;5.10;;;2.37;;
72113;SDS011;59989;46.220;19.888;2023-06-22T14:12:57;5.88;;;2.83;;
72113;SDS011;59989;46.220;19.888;2023-06-22T14:16:02;5.47;;;2.47;;
72113;SDS011;59989;46.220;19.888;2023-06-22T14:19:06;5.53;;;2.63;;
72113;SDS011;59989;46.220;19.888;2023-06-22T14:22:08;5.90;;;2.90;;
72113;SDS011;59989;46.220;19.888;2023-06-22T14:25:11;5.30;;;2.40;;
72113;SDS011;59989;46.220;19.888;2023-06-22T14:28:13;9.02;;;3.40;;
72113;SDS011;59989;46.220;19.888;2023-06-22T14:31:16;5.40;;;2.60;;
72113;SDS011;59989;46.220;19.888;2023-06-22T14:34:19;5.40;;;2.75;;
72113;SDS011;59989;46.220;19.888;2023-06-22T14:37:22;5.55;;;2.50;;
72113;SDS011;59989;46.220;19.888;2023-06-22T14:40:24;5.80;;;2.83;;
72113;SDS011;59989;46.220;19.888;2023-06-22T14:43:28;7.35;;;2.80;;
72113;SDS011;59989;46.220;19.888;2023-06-22T14:46:30;6.45;;;2.92;;
72113;SDS011;59989;46.220;19.888;2023-06-22T14:49:33;5.40;;;2.40;;
72113;SDS011;59989;46.220;19.888;2023-06-22T14:52:36;6.00;;;2.70;;
72113;SDS011;59989;46.220;19.888;2023-06-22T14:55:38;5.43;;;2.90;;
72113;SDS011;59989;46.220;19.888;2023-06-22T14:58:41;5.78;;;2.92;;
72113;SDS011;59989;46.220;19.888;2023-06-22T15:01:48;6.65;;;3.30;;
72113;SDS011;59989;46.220;19.888;2023-06-22T15:04:50;5.00;;;2.40;;
72113;SDS011;59989;46.220;19.888;2023-06-22T15:07:55;6.00;;;3.03;;
72113;SDS011;59989;46.220;19.888;2023-06-22T15:11:00;5.87;;;2.73;;
72113;SDS011;59989;46.220;19.888;2023-06-22T15:14:04;5.88;;;2.85;;
72113;SDS011;59989;46.220;19.888;2023-06-22T15:17:07;5.20;;;2.70;;
72113;SDS011;59989;46.220;19.888;2023-06-22T15:20:16;6.00;;;3.15;;
72113;SDS011;59989;46.220;19.888;2023-06-22T15:23:18;5.50;;;2.58;;
72113;SDS011;59989;46.220;19.888;2023-06-22T15:26:20;4.93;;;2.43;;
72113;SDS011;59989;46.220;19.888;2023-06-22T15:29:23;5.45;;;2.80;;
72113;SDS011;59989;46.220;19.888;2023-06-22T15:32:26;6.25;;;2.67;;
72113;SDS011;59989;46.220;19.888;2023-06-22T15:35:28;5.63;;;2.78;;
72113;SDS011;59989;46.220;19.888;2023-06-22T15:38:31;5.28;;;2.45;;
72113;SDS011;59989;46.220;19.888;2023-06-22T15:41:34;5.67;;;2.67;;
72113;SDS011;59989;46.220;19.888;2023-06-22T15:44:36;5.20;;;2.40;;
72113;SDS011;59989;46.220;19.888;2023-06-22T15:47:39;4.90;;;2.47;;
72113;SDS011;59989;46.220;19.888;2023-06-22T15:50:41;5.47;;;2.78;;
72113;SDS011;59989;46.220;19.888;2023-06-22T15:53:43;6.80;;;2.97;;
72113;SDS011;59989;46.220;19.888;2023-06-22T15:56:46;6.00;;;2.73;;
72113;SDS011;59989;46.220;19.888;2023-06-22T15:59:48;5.35;;;2.75;;
72113;SDS011;59989;46.220;19.888;2023-06-22T16:02:51;5.97;;;2.70;;
72113;SDS011;59989;46.220;19.888;2023-06-22T16:05:54;5.55;;;2.78;;
72113;SDS011;59989;46.220;19.888;2023-06-22T16:08:57;5.25;;;2.30;;
72113;SDS011;59989;46.220;19.888;2023-06-22T16:11:59;5.33;;;2.53;;
72113;SDS011;59989;46.220;19.888;2023-06-22T16:15:02;4.90;;;2.15;;
72113;SDS011;59989;46.220;19.888;2023-06-22T16:18:05;4.70;;;2.20;;
72113;SDS011;59989;46.220;19.888;2023-06-22T16:21:08;4.63;;;2.03;;
72113;SDS011;59989;46.220;19.888;2023-06-22T16:24:11;4.85;;;1.90;;
72113;SDS011;59989;46.220;19.888;2023-06-22T16:27:13;5.00;;;2.20;;
72113;SDS011;59989;46.220;19.888;2023-06-22T16:30:15;5.15;;;2.38;;
72113;SDS011;59989;46.220;19.888;2023-06-22T16:33:18;5.47;;;2.85;;
72113;SDS011;59989;46.220;19.888;2023-06-22T16:36:20;4.68;;;2.08;;
72113;SDS011;59989;46.220;19.888;2023-06-22T16:39:23;4.75;;;2.03;;
72113;SDS011;59989;46.220;19.888;2023-06-22T16:42:25;4.10;;;1.77;;
72113;SDS011;59989;46.220;19.888;2023-06-22T16:45:28;5.35;;;2.53;;
72113;SDS011;59989;46.220;19.888;2023-06-22T16:48:30;4.63;;;1.95;;
72113;SDS011;59989;46.220;19.888;2023-06-22T16:51:33;4.88;;;2.10;;
72113;SDS011;59989;46.220;19.888;2023-06-22T16:54:35;4.88;;;2.22;;
72113;SDS011;59989;46.220;19.888;2023-06-22T16:57:43;5.10;;;2.60;;
72113;SDS011;59989;46.220;19.888;2023-06-22T17:00:45;3.95;;;1.80;;
72113;SDS011;59989;46.220;19.888;2023-06-22T17:03:50;4.28;;;1.83;;
72113;SDS011;59989;46.220;19.888;2023-06-22T17:07:09;4.22;;;1.65;;
72113;SDS011;59989;46.220;19.888;2023-06-22T17:10:15;4.97;;;2.22;;
72113;SDS011;59989;46.220;19.888;2023-06-22T17:13:18;3.43;;;1.60;;
72113;SDS011;59989;46.220;19.888;2023-06-22T17:16:21;4.00;;;1.70;;
72113;SDS011;59989;46.220;19.888;2023-06-22T17:19:25;3.58;;;1.55;;
72113;SDS011;59989;46.220;19.888;2023-06-22T17:22:29;3.47;;;1.40;;
72113;SDS011;59989;46.220;19.888;2023-06-22T17:25:37;3.45;;;1.42;;
72113;SDS011;59989;46.220;19.888;2023-06-22T17:31:53;4.10;;;2.08;;
72113;SDS011;59989;46.220;19.888;2023-06-22T17:34:58;3.55;;;1.30;;
72113;SDS011;59989;46.220;19.888;2023-06-22T17:38:00;4.28;;;1.73;;
72113;SDS011;59989;46.220;19.888;2023-06-22T17:41:03;3.38;;;1.35;;
72113;SDS011;59989;46.220;19.888;2023-06-22T17:44:08;3.17;;;1.27;;
72113;SDS011;59989;46.220;19.888;2023-06-22T17:47:11;3.17;;;1.33;;
72113;SDS011;59989;46.220;19.888;2023-06-22T17:50:13;5.45;;;1.25;;
72113;SDS011;59989;46.220;19.888;2023-06-22T17:53:16;4.75;;;1.50;;
72113;SDS011;59989;46.220;19.888;2023-06-22T17:56:19;4.75;;;1.80;;
72113;SDS011;59989;46.220;19.888;2023-06-22T17:59:21;3.40;;;1.33;;
72113;SDS011;59989;46.220;19.888;2023-06-22T18:02:24;4.82;;;1.75;;
72113;SDS011;59989;46.220;19.888;2023-06-22T18:05:32;3.80;;;1.48;;
72113;SDS011;59989;46.220;19.888;2023-06-22T18:08:39;4.50;;;1.70;;
72113;SDS011;59989;46.220;19.888;2023-06-22T18:11:44;3.92;;;1.75;;
72113;SDS011;59989;46.220;19.888;2023-06-22T18:14:50;3.43;;;1.63;;